sensor_id;sensor_type;location;lat;lon;timestamp;P1;durP1;ratioP1;P2;durP2;ratioP2
22754;SDS011;11544;42.020;23.094;2023-04-16T00:01:35;5.43;;;2.42;;
22754;SDS011;11544;42.020;23.094;2023-04-16T00:04:01;5.57;;;2.05;;
22754;SDS011;11544;42.020;23.094;2023-04-16T00:06:29;7.05;;;2.53;;
22754;SDS011;11544;42.020;23.094;2023-04-16T00:08:57;3.83;;;2.10;;
22754;SDS011;11544;42.020;23.094;2023-04-16T00:11:24;5.18;;;2.17;;
22754;SDS011;11544;42.020;23.094;2023-04-16T00:13:51;4.20;;;2.00;;
22754;SDS011;11544;42.020;23.094;2023-04-16T00:16:17;4.90;;;2.15;;
22754;SDS011;11544;42.020;23.094;2023-04-16T00:18:44;4.65;;;2.17;;
22754;SDS011;11544;42.020;23.094;2023-04-16T00:21:13;6.28;;;2.30;;
22754;SDS011;11544;42.020;23.094;2023-04-16T00:23:40;5.18;;;2.13;;
22754;SDS011;11544;42.020;23.094;2023-04-16T00:26:07;3.70;;;2.33;;
22754;SDS011;11544;42.020;23.094;2023-04-16T00:28:34;7.43;;;2.58;;
22754;SDS011;11544;42.020;23.094;2023-04-16T00:31:01;5.22;;;2.35;;
22754;SDS011;11544;42.020;23.094;2023-04-16T00:33:28;5.30;;;2.63;;
22754;SDS011;11544;42.020;23.094;2023-04-16T00:35:55;7.57;;;2.35;;
22754;SDS011;11544;42.020;23.094;2023-04-16T00:38:22;5.38;;;2.67;;
22754;SDS011;11544;42.020;23.094;2023-04-16T00:40:49;6.93;;;2.47;;
22754;SDS011;11544;42.020;23.094;2023-04-16T00:43:22;5.78;;;2.50;;
22754;SDS011;11544;42.020;23.094;2023-04-16T00:45:51;2.72;;;1.95;;
22754;SDS011;11544;42.020;23.094;2023-04-16T00:48:19;4.45;;;2.10;;
22754;SDS011;11544;42.020;23.094;2023-04-16T00:50:47;3.08;;;1.90;;
22754;SDS011;11544;42.020;23.094;2023-04-16T00:53:14;8.25;;;2.45;;
22754;SDS011;11544;42.020;23.094;2023-04-16T00:55:41;4.25;;;2.13;;
22754;SDS011;11544;42.020;23.094;2023-04-16T00:58:09;3.80;;;1.50;;
22754;SDS011;11544;42.020;23.094;2023-04-16T01:00:35;2.10;;;1.63;;
22754;SDS011;11544;42.020;23.094;2023-04-16T01:03:03;2.58;;;1.30;;
22754;SDS011;11544;42.020;23.094;2023-04-16T01:05:30;2.55;;;1.30;;
22754;SDS011;11544;42.020;23.094;2023-04-16T01:07:58;2.88;;;1.67;;
22754;SDS011;11544;42.020;23.094;2023-04-16T01:10:26;2.42;;;1.20;;
22754;SDS011;11544;42.020;23.094;2023-04-16T01:12:53;2.47;;;1.23;;
22754;SDS011;11544;42.020;23.094;2023-04-16T01:15:19;3.50;;;2.40;;
22754;SDS011;11544;42.020;23.094;2023-04-16T01:17:46;5.40;;;2.70;;
22754;SDS011;11544;42.020;23.094;2023-04-16T01:20:13;5.60;;;3.03;;
22754;SDS011;11544;42.020;23.094;2023-04-16T01:22:40;6.22;;;2.75;;
22754;SDS011;11544;42.020;23.094;2023-04-16T01:25:12;6.45;;;2.55;;
22754;SDS011;11544;42.020;23.094;2023-04-16T01:27:44;5.07;;;2.75;;
22754;SDS011;11544;42.020;23.094;2023-04-16T01:30:15;7.10;;;2.92;;
22754;SDS011;11544;42.020;23.094;2023-04-16T01:32:41;6.05;;;2.95;;
22754;SDS011;11544;42.020;23.094;2023-04-16T01:35:09;6.93;;;2.90;;
22754;SDS011;11544;42.020;23.094;2023-04-16T01:37:35;6.90;;;2.97;;
22754;SDS011;11544;42.020;23.094;2023-04-16T01:40:02;6.57;;;3.25;;
22754;SDS011;11544;42.020;23.094;2023-04-16T01:42:29;6.95;;;3.42;;
22754;SDS011;11544;42.020;23.094;2023-04-16T01:44:56;7.75;;;3.67;;
22754;SDS011;11544;42.020;23.094;2023-04-16T01:47:23;7.30;;;3.20;;
22754;SDS011;11544;42.020;23.094;2023-04-16T01:49:50;7.00;;;3.22;;
22754;SDS011;11544;42.020;23.094;2023-04-16T01:52:17;7.80;;;3.42;;
22754;SDS011;11544;42.020;23.094;2023-04-16T01:54:44;6.03;;;3.08;;
22754;SDS011;11544;42.020;23.094;2023-04-16T01:57:12;7.68;;;3.42;;
22754;SDS011;11544;42.020;23.094;2023-04-16T01:59:41;6.30;;;2.85;;
22754;SDS011;11544;42.020;23.094;2023-04-16T02:02:12;4.95;;;3.20;;
22754;SDS011;11544;42.020;23.094;2023-04-16T02:04:42;9.15;;;3.22;;
22754;SDS011;11544;42.020;23.094;2023-04-16T02:07:10;6.57;;;3.47;;
22754;SDS011;11544;42.020;23.094;2023-04-16T02:09:38;8.57;;;3.92;;
22754;SDS011;11544;42.020;23.094;2023-04-16T02:12:06;4.97;;;3.13;;
22754;SDS011;11544;42.020;23.094;2023-04-16T02:14:33;6.10;;;3.28;;
22754;SDS011;11544;42.020;23.094;2023-04-16T02:17:00;6.93;;;3.42;;
22754;SDS011;11544;42.020;23.094;2023-04-16T02:19:30;8.27;;;3.95;;
22754;SDS011;11544;42.020;23.094;2023-04-16T02:21:57;7.25;;;4.28;;
22754;SDS011;11544;42.020;23.094;2023-04-16T02:24:26;9.43;;;4.85;;
22754;SDS011;11544;42.020;23.094;2023-04-16T02:26:59;11.18;;;4.72;;
22754;SDS011;11544;42.020;23.094;2023-04-16T02:29:29;9.63;;;4.55;;
22754;SDS011;11544;42.020;23.094;2023-04-16T02:31:57;10.07;;;4.70;;
22754;SDS011;11544;42.020;23.094;2023-04-16T02:34:25;8.38;;;5.05;;
22754;SDS011;11544;42.020;23.094;2023-04-16T02:36:51;8.68;;;5.22;;
22754;SDS011;11544;42.020;23.094;2023-04-16T02:39:19;10.68;;;4.82;;
22754;SDS011;11544;42.020;23.094;2023-04-16T02:41:46;7.00;;;4.00;;
22754;SDS011;11544;42.020;23.094;2023-04-16T02:44:13;7.47;;;4.00;;
22754;SDS011;11544;42.020;23.094;2023-04-16T02:46:41;8.13;;;3.78;;
22754;SDS011;11544;42.020;23.094;2023-04-16T02:49:08;8.63;;;4.30;;
22754;SDS011;11544;42.020;23.094;2023-04-16T02:51:37;10.55;;;4.15;;
22754;SDS011;11544;42.020;23.094;2023-04-16T02:54:18;7.43;;;3.78;;
22754;SDS011;11544;42.020;23.094;2023-04-16T02:56:44;7.35;;;3.97;;
22754;SDS011;11544;42.020;23.094;2023-04-16T02:59:11;8.73;;;3.70;;
22754;SDS011;11544;42.020;23.094;2023-04-16T03:01:38;6.13;;;3.47;;
22754;SDS011;11544;42.020;23.094;2023-04-16T03:04:05;5.82;;;3.67;;
22754;SDS011;11544;42.020;23.094;2023-04-16T03:06:35;7.60;;;3.35;;
22754;SDS011;11544;42.020;23.094;2023-04-16T03:09:02;5.25;;;2.90;;
22754;SDS011;11544;42.020;23.094;2023-04-16T03:11:29;8.15;;;3.15;;
22754;SDS011;11544;42.020;23.094;2023-04-16T03:13:56;5.10;;;2.63;;
22754;SDS011;11544;42.020;23.094;2023-04-16T03:16:23;3.90;;;2.35;;
22754;SDS011;11544;42.020;23.094;2023-04-16T03:18:49;4.47;;;2.70;;
22754;SDS011;11544;42.020;23.094;2023-04-16T03:21:16;5.53;;;2.75;;
22754;SDS011;11544;42.020;23.094;2023-04-16T03:23:43;8.70;;;2.58;;
22754;SDS011;11544;42.020;23.094;2023-04-16T03:26:10;4.47;;;2.65;;
22754;SDS011;11544;42.020;23.094;2023-04-16T03:28:37;2.67;;;2.10;;
22754;SDS011;11544;42.020;23.094;2023-04-16T03:31:06;6.82;;;2.40;;
22754;SDS011;11544;42.020;23.094;2023-04-16T03:33:32;4.25;;;1.90;;
22754;SDS011;11544;42.020;23.094;2023-04-16T03:35:59;3.28;;;1.75;;
22754;SDS011;11544;42.020;23.094;2023-04-16T03:38:26;3.10;;;1.65;;
22754;SDS011;11544;42.020;23.094;2023-04-16T03:40:53;4.20;;;1.73;;
22754;SDS011;11544;42.020;23.094;2023-04-16T03:43:20;2.85;;;1.83;;
22754;SDS011;11544;42.020;23.094;2023-04-16T03:45:47;3.22;;;1.70;;
22754;SDS011;11544;42.020;23.094;2023-04-16T03:48:14;3.25;;;1.95;;
22754;SDS011;11544;42.020;23.094;2023-04-16T03:50:45;5.72;;;2.30;;
22754;SDS011;11544;42.020;23.094;2023-04-16T03:53:22;2.92;;;1.70;;
22754;SDS011;11544;42.020;23.094;2023-04-16T03:56:00;5.40;;;2.28;;
22754;SDS011;11544;42.020;23.094;2023-04-16T03:58:36;5.05;;;2.33;;
22754;SDS011;11544;42.020;23.094;2023-04-16T04:01:09;5.45;;;2.35;;
22754;SDS011;11544;42.020;23.094;2023-04-16T04:03:35;6.03;;;2.30;;
22754;SDS011;11544;42.020;23.094;2023-04-16T04:06:08;6.93;;;4.10;;
22754;SDS011;11544;42.020;23.094;2023-04-16T04:08:35;9.43;;;4.68;;
22754;SDS011;11544;42.020;23.094;2023-04-16T04:11:02;7.07;;;4.53;;
22754;SDS011;11544;42.020;23.094;2023-04-16T04:13:29;9.93;;;4.85;;
22754;SDS011;11544;42.020;23.094;2023-04-16T04:16:00;11.00;;;5.13;;
22754;SDS011;11544;42.020;23.094;2023-04-16T04:18:45;9.30;;;5.57;;
22754;SDS011;11544;42.020;23.094;2023-04-16T04:21:12;10.10;;;4.68;;
22754;SDS011;11544;42.020;23.094;2023-04-16T04:23:39;9.02;;;4.00;;
22754;SDS011;11544;42.020;23.094;2023-04-16T04:26:07;7.57;;;4.38;;
22754;SDS011;11544;42.020;23.094;2023-04-16T04:28:36;10.68;;;6.13;;
22754;SDS011;11544;42.020;23.094;2023-04-16T04:31:03;11.75;;;4.40;;
22754;SDS011;11544;42.020;23.094;2023-04-16T04:33:30;9.60;;;5.13;;
22754;SDS011;11544;42.020;23.094;2023-04-16T04:35:57;8.80;;;4.75;;
22754;SDS011;11544;42.020;23.094;2023-04-16T04:38:24;7.75;;;4.63;;
22754;SDS011;11544;42.020;23.094;2023-04-16T04:40:51;8.57;;;4.82;;
22754;SDS011;11544;42.020;23.094;2023-04-16T04:43:21;7.15;;;4.55;;
22754;SDS011;11544;42.020;23.094;2023-04-16T04:46:17;9.68;;;4.90;;
22754;SDS011;11544;42.020;23.094;2023-04-16T04:48:45;11.10;;;4.72;;
22754;SDS011;11544;42.020;23.094;2023-04-16T04:51:11;14.65;;;5.75;;
22754;SDS011;11544;42.020;23.094;2023-04-16T04:53:38;10.32;;;5.43;;
22754;SDS011;11544;42.020;23.094;2023-04-16T04:56:05;10.30;;;5.75;;
22754;SDS011;11544;42.020;23.094;2023-04-16T04:58:38;13.00;;;5.95;;
22754;SDS011;11544;42.020;23.094;2023-04-16T05:01:08;10.80;;;5.70;;
22754;SDS011;11544;42.020;23.094;2023-04-16T05:03:36;11.52;;;5.50;;
22754;SDS011;11544;42.020;23.094;2023-04-16T05:06:03;10.45;;;4.80;;
22754;SDS011;11544;42.020;23.094;2023-04-16T05:08:30;14.85;;;6.07;;
22754;SDS011;11544;42.020;23.094;2023-04-16T05:11:00;9.88;;;5.90;;
22754;SDS011;11544;42.020;23.094;2023-04-16T05:13:32;9.48;;;5.65;;
22754;SDS011;11544;42.020;23.094;2023-04-16T05:16:00;12.65;;;6.97;;
22754;SDS011;11544;42.020;23.094;2023-04-16T05:18:27;12.57;;;6.13;;
22754;SDS011;11544;42.020;23.094;2023-04-16T05:20:54;12.88;;;6.00;;
22754;SDS011;11544;42.020;23.094;2023-04-16T05:23:21;8.98;;;5.45;;
22754;SDS011;11544;42.020;23.094;2023-04-16T05:25:57;11.10;;;6.47;;
22754;SDS011;11544;42.020;23.094;2023-04-16T05:28:24;16.33;;;7.00;;
22754;SDS011;11544;42.020;23.094;2023-04-16T05:30:50;11.57;;;6.88;;
22754;SDS011;11544;42.020;23.094;2023-04-16T05:33:18;14.50;;;7.43;;
22754;SDS011;11544;42.020;23.094;2023-04-16T05:35:46;12.77;;;7.63;;
22754;SDS011;11544;42.020;23.094;2023-04-16T05:38:13;14.93;;;8.43;;
22754;SDS011;11544;42.020;23.094;2023-04-16T05:40:40;15.35;;;8.10;;
22754;SDS011;11544;42.020;23.094;2023-04-16T05:43:06;15.90;;;10.10;;
22754;SDS011;11544;42.020;23.094;2023-04-16T05:45:41;17.17;;;8.82;;
22754;SDS011;11544;42.020;23.094;2023-04-16T05:48:15;18.38;;;11.15;;
22754;SDS011;11544;42.020;23.094;2023-04-16T05:50:42;15.15;;;9.82;;
22754;SDS011;11544;42.020;23.094;2023-04-16T05:53:12;18.38;;;10.05;;
22754;SDS011;11544;42.020;23.094;2023-04-16T05:55:44;13.38;;;8.75;;
22754;SDS011;11544;42.020;23.094;2023-04-16T05:58:16;15.27;;;9.23;;
22754;SDS011;11544;42.020;23.094;2023-04-16T06:00:43;15.65;;;8.18;;
22754;SDS011;11544;42.020;23.094;2023-04-16T06:03:10;15.38;;;8.00;;
22754;SDS011;11544;42.020;23.094;2023-04-16T06:05:37;14.48;;;7.75;;
22754;SDS011;11544;42.020;23.094;2023-04-16T06:08:05;10.98;;;6.47;;
22754;SDS011;11544;42.020;23.094;2023-04-16T06:10:35;13.68;;;7.85;;
22754;SDS011;11544;42.020;23.094;2023-04-16T06:13:20;10.07;;;6.72;;
22754;SDS011;11544;42.020;23.094;2023-04-16T06:15:51;10.27;;;6.18;;
22754;SDS011;11544;42.020;23.094;2023-04-16T06:18:21;9.98;;;5.20;;
22754;SDS011;11544;42.020;23.094;2023-04-16T06:20:51;8.05;;;4.63;;
22754;SDS011;11544;42.020;23.094;2023-04-16T06:23:18;6.90;;;3.90;;
22754;SDS011;11544;42.020;23.094;2023-04-16T06:25:48;8.10;;;4.18;;
22754;SDS011;11544;42.020;23.094;2023-04-16T06:28:21;5.72;;;2.75;;
22754;SDS011;11544;42.020;23.094;2023-04-16T06:30:48;8.68;;;4.03;;
22754;SDS011;11544;42.020;23.094;2023-04-16T06:33:15;11.98;;;5.35;;
22754;SDS011;11544;42.020;23.094;2023-04-16T06:35:43;11.68;;;5.22;;
22754;SDS011;11544;42.020;23.094;2023-04-16T06:38:14;10.10;;;5.15;;
22754;SDS011;11544;42.020;23.094;2023-04-16T06:40:51;9.45;;;4.72;;
22754;SDS011;11544;42.020;23.094;2023-04-16T06:43:38;9.73;;;4.25;;
22754;SDS011;11544;42.020;23.094;2023-04-16T06:46:05;10.02;;;5.50;;
22754;SDS011;11544;42.020;23.094;2023-04-16T06:48:32;11.32;;;4.50;;
22754;SDS011;11544;42.020;23.094;2023-04-16T06:50:59;8.48;;;4.57;;
22754;SDS011;11544;42.020;23.094;2023-04-16T06:53:25;8.23;;;4.78;;
22754;SDS011;11544;42.020;23.094;2023-04-16T06:55:52;7.28;;;4.28;;
22754;SDS011;11544;42.020;23.094;2023-04-16T06:58:19;10.63;;;4.97;;
22754;SDS011;11544;42.020;23.094;2023-04-16T07:00:47;5.68;;;3.45;;
22754;SDS011;11544;42.020;23.094;2023-04-16T07:03:14;7.85;;;4.47;;
22754;SDS011;11544;42.020;23.094;2023-04-16T07:05:41;9.93;;;4.85;;
22754;SDS011;11544;42.020;23.094;2023-04-16T07:08:10;11.75;;;4.70;;
22754;SDS011;11544;42.020;23.094;2023-04-16T07:10:42;9.48;;;4.35;;
22754;SDS011;11544;42.020;23.094;2023-04-16T07:13:09;8.95;;;4.63;;
22754;SDS011;11544;42.020;23.094;2023-04-16T07:15:38;11.30;;;5.20;;
22754;SDS011;11544;42.020;23.094;2023-04-16T07:18:08;10.95;;;5.22;;
22754;SDS011;11544;42.020;23.094;2023-04-16T07:20:35;8.07;;;5.15;;
22754;SDS011;11544;42.020;23.094;2023-04-16T07:23:11;7.97;;;4.53;;
22754;SDS011;11544;42.020;23.094;2023-04-16T07:25:38;9.02;;;4.50;;
22754;SDS011;11544;42.020;23.094;2023-04-16T07:28:05;8.48;;;4.20;;
22754;SDS011;11544;42.020;23.094;2023-04-16T07:30:35;10.27;;;4.65;;
22754;SDS011;11544;42.020;23.094;2023-04-16T07:33:12;10.75;;;5.07;;
22754;SDS011;11544;42.020;23.094;2023-04-16T07:35:41;12.68;;;5.43;;
22754;SDS011;11544;42.020;23.094;2023-04-16T07:38:07;10.48;;;4.70;;
22754;SDS011;11544;42.020;23.094;2023-04-16T07:40:35;9.63;;;5.05;;
22754;SDS011;11544;42.020;23.094;2023-04-16T07:43:02;8.48;;;3.97;;
22754;SDS011;11544;42.020;23.094;2023-04-16T07:45:29;8.43;;;4.57;;
22754;SDS011;11544;42.020;23.094;2023-04-16T07:47:58;6.40;;;4.03;;
22754;SDS011;11544;42.020;23.094;2023-04-16T07:50:34;6.45;;;3.80;;
22754;SDS011;11544;42.020;23.094;2023-04-16T07:53:01;12.10;;;4.38;;
22754;SDS011;11544;42.020;23.094;2023-04-16T07:55:28;11.95;;;4.65;;
22754;SDS011;11544;42.020;23.094;2023-04-16T07:57:55;7.30;;;4.35;;
22754;SDS011;11544;42.020;23.094;2023-04-16T08:00:31;8.95;;;4.40;;
22754;SDS011;11544;42.020;23.094;2023-04-16T08:02:58;7.15;;;4.15;;
22754;SDS011;11544;42.020;23.094;2023-04-16T08:05:26;9.55;;;4.10;;
22754;SDS011;11544;42.020;23.094;2023-04-16T08:07:55;9.07;;;4.32;;
22754;SDS011;11544;42.020;23.094;2023-04-16T08:10:27;7.50;;;3.90;;
22754;SDS011;11544;42.020;23.094;2023-04-16T08:12:54;7.38;;;3.45;;
22754;SDS011;11544;42.020;23.094;2023-04-16T08:15:22;9.68;;;3.22;;
22754;SDS011;11544;42.020;23.094;2023-04-16T08:17:53;6.25;;;3.22;;
22754;SDS011;11544;42.020;23.094;2023-04-16T08:20:20;6.80;;;3.30;;
22754;SDS011;11544;42.020;23.094;2023-04-16T08:22:47;8.13;;;4.05;;
22754;SDS011;11544;42.020;23.094;2023-04-16T08:25:14;13.82;;;3.95;;
22754;SDS011;11544;42.020;23.094;2023-04-16T08:27:41;10.10;;;3.72;;
22754;SDS011;11544;42.020;23.094;2023-04-16T08:30:07;6.65;;;2.63;;
22754;SDS011;11544;42.020;23.094;2023-04-16T08:32:34;6.30;;;2.67;;
22754;SDS011;11544;42.020;23.094;2023-04-16T08:35:05;7.15;;;3.10;;
22754;SDS011;11544;42.020;23.094;2023-04-16T08:37:32;8.10;;;2.75;;
22754;SDS011;11544;42.020;23.094;2023-04-16T08:40:03;8.73;;;3.05;;
22754;SDS011;11544;42.020;23.094;2023-04-16T08:42:47;5.93;;;2.30;;
22754;SDS011;11544;42.020;23.094;2023-04-16T08:45:31;4.55;;;2.00;;
22754;SDS011;11544;42.020;23.094;2023-04-16T08:48:04;6.88;;;2.58;;
22754;SDS011;11544;42.020;23.094;2023-04-16T08:50:32;6.95;;;2.58;;
22754;SDS011;11544;42.020;23.094;2023-04-16T08:53:09;3.92;;;2.55;;
22754;SDS011;11544;42.020;23.094;2023-04-16T08:55:47;4.57;;;2.10;;
22754;SDS011;11544;42.020;23.094;2023-04-16T08:58:19;3.72;;;2.30;;
22754;SDS011;11544;42.020;23.094;2023-04-16T09:00:48;5.90;;;1.90;;
22754;SDS011;11544;42.020;23.094;2023-04-16T09:03:15;3.42;;;2.03;;
22754;SDS011;11544;42.020;23.094;2023-04-16T09:05:42;6.20;;;2.35;;
22754;SDS011;11544;42.020;23.094;2023-04-16T09:08:10;4.18;;;2.20;;
22754;SDS011;11544;42.020;23.094;2023-04-16T09:10:51;4.32;;;2.58;;
22754;SDS011;11544;42.020;23.094;2023-04-16T09:13:21;6.13;;;2.50;;
22754;SDS011;11544;42.020;23.094;2023-04-16T09:15:52;4.50;;;2.67;;
22754;SDS011;11544;42.020;23.094;2023-04-16T09:18:23;5.30;;;2.03;;
22754;SDS011;11544;42.020;23.094;2023-04-16T09:20:50;5.00;;;1.77;;
22754;SDS011;11544;42.020;23.094;2023-04-16T09:23:17;5.47;;;2.00;;
22754;SDS011;11544;42.020;23.094;2023-04-16T09:25:44;3.92;;;1.90;;
22754;SDS011;11544;42.020;23.094;2023-04-16T09:31:10;3.00;;;2.10;;
22754;SDS011;11544;42.020;23.094;2023-04-16T09:34:06;2.53;;;1.38;;
22754;SDS011;11544;42.020;23.094;2023-04-16T09:36:36;5.43;;;1.85;;
22754;SDS011;11544;42.020;23.094;2023-04-16T09:39:06;5.20;;;1.65;;
22754;SDS011;11544;42.020;23.094;2023-04-16T09:41:50;2.25;;;1.40;;
22754;SDS011;11544;42.020;23.094;2023-04-16T09:44:20;1.75;;;1.42;;
22754;SDS011;11544;42.020;23.094;2023-04-16T09:47:07;2.15;;;1.40;;
22754;SDS011;11544;42.020;23.094;2023-04-16T09:49:41;3.42;;;1.10;;
22754;SDS011;11544;42.020;23.094;2023-04-16T09:52:13;3.15;;;1.45;;
22754;SDS011;11544;42.020;23.094;2023-04-16T09:54:51;2.33;;;1.55;;
22754;SDS011;11544;42.020;23.094;2023-04-16T09:57:20;2.97;;;1.20;;
22754;SDS011;11544;42.020;23.094;2023-04-16T10:00:01;3.60;;;1.20;;
22754;SDS011;11544;42.020;23.094;2023-04-16T10:02:46;4.05;;;1.85;;
22754;SDS011;11544;42.020;23.094;2023-04-16T10:05:16;3.40;;;1.52;;
22754;SDS011;11544;42.020;23.094;2023-04-16T10:07:45;5.25;;;0.98;;
22754;SDS011;11544;42.020;23.094;2023-04-16T10:10:29;4.13;;;1.00;;
22754;SDS011;11544;42.020;23.094;2023-04-16T10:12:58;2.15;;;1.23;;
22754;SDS011;11544;42.020;23.094;2023-04-16T10:15:26;3.92;;;1.10;;
22754;SDS011;11544;42.020;23.094;2023-04-16T10:17:53;2.08;;;0.98;;
22754;SDS011;11544;42.020;23.094;2023-04-16T10:20:37;4.60;;;1.13;;
22754;SDS011;11544;42.020;23.094;2023-04-16T10:23:04;1.50;;;1.15;;
22754;SDS011;11544;42.020;23.094;2023-04-16T10:25:32;2.17;;;1.40;;
22754;SDS011;11544;42.020;23.094;2023-04-16T10:28:34;3.03;;;1.42;;
22754;SDS011;11544;42.020;23.094;2023-04-16T10:31:03;2.28;;;1.27;;
22754;SDS011;11544;42.020;23.094;2023-04-16T10:33:36;1.77;;;0.77;;
22754;SDS011;11544;42.020;23.094;2023-04-16T10:36:10;1.35;;;0.90;;
22754;SDS011;11544;42.020;23.094;2023-04-16T10:38:39;2.30;;;0.90;;
22754;SDS011;11544;42.020;23.094;2023-04-16T10:41:20;3.13;;;1.02;;
22754;SDS011;11544;42.020;23.094;2023-04-16T10:43:48;1.15;;;0.52;;
22754;SDS011;11544;42.020;23.094;2023-04-16T10:46:22;1.88;;;0.63;;
22754;SDS011;11544;42.020;23.094;2023-04-16T10:48:52;3.60;;;0.70;;
22754;SDS011;11544;42.020;23.094;2023-04-16T10:51:38;2.17;;;0.68;;
22754;SDS011;11544;42.020;23.094;2023-04-16T10:56:39;4.72;;;0.73;;
22754;SDS011;11544;42.020;23.094;2023-04-16T10:59:33;2.05;;;0.70;;
22754;SDS011;11544;42.020;23.094;2023-04-16T11:02:05;3.00;;;0.70;;
22754;SDS011;11544;42.020;23.094;2023-04-16T11:04:38;1.17;;;0.80;;
22754;SDS011;11544;42.020;23.094;2023-04-16T11:12:38;5.57;;;1.17;;
22754;SDS011;11544;42.020;23.094;2023-04-16T11:15:25;2.97;;;1.33;;
22754;SDS011;11544;42.020;23.094;2023-04-16T11:18:08;0.55;;;0.47;;
22754;SDS011;11544;42.020;23.094;2023-04-16T11:20:40;2.45;;;0.70;;
22754;SDS011;11544;42.020;23.094;2023-04-16T11:23:09;1.95;;;0.45;;
22754;SDS011;11544;42.020;23.094;2023-04-16T11:25:38;1.58;;;0.73;;
22754;SDS011;11544;42.020;23.094;2023-04-16T11:28:19;1.17;;;0.38;;
22754;SDS011;11544;42.020;23.094;2023-04-16T11:30:47;1.50;;;0.80;;
22754;SDS011;11544;42.020;23.094;2023-04-16T11:33:13;1.77;;;0.50;;
22754;SDS011;11544;42.020;23.094;2023-04-16T11:35:43;1.20;;;0.63;;
22754;SDS011;11544;42.020;23.094;2023-04-16T11:38:32;2.58;;;0.90;;
22754;SDS011;11544;42.020;23.094;2023-04-16T11:41:02;10.52;;;0.90;;
22754;SDS011;11544;42.020;23.094;2023-04-16T11:43:32;2.67;;;1.00;;
22754;SDS011;11544;42.020;23.094;2023-04-16T11:46:04;0.90;;;0.63;;
22754;SDS011;11544;42.020;23.094;2023-04-16T11:48:52;4.00;;;0.90;;
22754;SDS011;11544;42.020;23.094;2023-04-16T11:51:20;2.53;;;0.90;;
22754;SDS011;11544;42.020;23.094;2023-04-16T11:53:49;0.85;;;0.45;;
22754;SDS011;11544;42.020;23.094;2023-04-16T11:56:28;9.48;;;1.38;;
22754;SDS011;11544;42.020;23.094;2023-04-16T12:01:41;1.35;;;0.70;;
22754;SDS011;11544;42.020;23.094;2023-04-16T12:04:15;3.42;;;1.30;;
22754;SDS011;11544;42.020;23.094;2023-04-16T12:09:38;3.10;;;1.00;;
22754;SDS011;11544;42.020;23.094;2023-04-16T12:12:23;1.58;;;0.77;;
22754;SDS011;11544;42.020;23.094;2023-04-16T12:15:01;1.58;;;0.60;;
22754;SDS011;11544;42.020;23.094;2023-04-16T12:17:38;2.65;;;0.55;;
22754;SDS011;11544;42.020;23.094;2023-04-16T12:20:14;4.55;;;0.77;;
22754;SDS011;11544;42.020;23.094;2023-04-16T12:22:45;0.68;;;0.60;;
22754;SDS011;11544;42.020;23.094;2023-04-16T12:25:13;3.20;;;0.60;;
22754;SDS011;11544;42.020;23.094;2023-04-16T12:27:45;1.50;;;0.70;;
22754;SDS011;11544;42.020;23.094;2023-04-16T12:30:20;5.97;;;0.80;;
22754;SDS011;11544;42.020;23.094;2023-04-16T12:32:49;2.33;;;0.73;;
22754;SDS011;11544;42.020;23.094;2023-04-16T12:35:32;2.75;;;1.00;;
22754;SDS011;11544;42.020;23.094;2023-04-16T12:38:04;3.38;;;0.68;;
22754;SDS011;11544;42.020;23.094;2023-04-16T12:40:31;3.05;;;0.82;;
22754;SDS011;11544;42.020;23.094;2023-04-16T12:43:02;1.13;;;0.50;;
22754;SDS011;11544;42.020;23.094;2023-04-16T12:45:30;3.70;;;0.80;;
22754;SDS011;11544;42.020;23.094;2023-04-16T12:48:14;1.35;;;0.68;;
22754;SDS011;11544;42.020;23.094;2023-04-16T12:50:44;1.13;;;0.60;;
22754;SDS011;11544;42.020;23.094;2023-04-16T12:53:11;1.92;;;0.90;;
22754;SDS011;11544;42.020;23.094;2023-04-16T12:55:38;3.50;;;0.70;;
22754;SDS011;11544;42.020;23.094;2023-04-16T12:58:05;3.85;;;0.85;;
22754;SDS011;11544;42.020;23.094;2023-04-16T13:00:32;5.07;;;1.17;;
22754;SDS011;11544;42.020;23.094;2023-04-16T13:02:58;4.20;;;0.80;;
22754;SDS011;11544;42.020;23.094;2023-04-16T13:05:30;3.30;;;0.90;;
22754;SDS011;11544;42.020;23.094;2023-04-16T13:07:56;1.90;;;0.80;;
22754;SDS011;11544;42.020;23.094;2023-04-16T13:10:25;3.45;;;1.00;;
22754;SDS011;11544;42.020;23.094;2023-04-16T13:12:55;7.18;;;1.15;;
22754;SDS011;11544;42.020;23.094;2023-04-16T13:15:22;3.50;;;1.42;;
22754;SDS011;11544;42.020;23.094;2023-04-16T13:17:50;4.05;;;1.38;;
22754;SDS011;11544;42.020;23.094;2023-04-16T13:20:24;6.47;;;1.85;;
22754;SDS011;11544;42.020;23.094;2023-04-16T13:22:53;5.82;;;2.10;;
22754;SDS011;11544;42.020;23.094;2023-04-16T13:25:19;4.15;;;1.58;;
22754;SDS011;11544;42.020;23.094;2023-04-16T13:28:15;3.90;;;1.60;;
22754;SDS011;11544;42.020;23.094;2023-04-16T13:30:45;4.78;;;1.70;;
22754;SDS011;11544;42.020;23.094;2023-04-16T13:33:17;3.70;;;1.65;;
22754;SDS011;11544;42.020;23.094;2023-04-16T13:35:44;3.05;;;1.42;;
22754;SDS011;11544;42.020;23.094;2023-04-16T13:38:18;4.05;;;1.25;;
22754;SDS011;11544;42.020;23.094;2023-04-16T13:40:45;4.13;;;1.45;;
22754;SDS011;11544;42.020;23.094;2023-04-16T13:43:36;3.15;;;1.13;;
22754;SDS011;11544;42.020;23.094;2023-04-16T13:46:03;4.68;;;1.10;;
22754;SDS011;11544;42.020;23.094;2023-04-16T13:48:30;2.45;;;0.98;;
22754;SDS011;11544;42.020;23.094;2023-04-16T13:51:01;3.50;;;0.90;;
22754;SDS011;11544;42.020;23.094;2023-04-16T13:53:29;3.30;;;0.90;;
22754;SDS011;11544;42.020;23.094;2023-04-16T13:55:56;1.48;;;0.90;;
22754;SDS011;11544;42.020;23.094;2023-04-16T13:58:23;2.22;;;0.90;;
22754;SDS011;11544;42.020;23.094;2023-04-16T14:00:56;2.58;;;1.00;;
22754;SDS011;11544;42.020;23.094;2023-04-16T14:03:32;3.05;;;1.20;;
22754;SDS011;11544;42.020;23.094;2023-04-16T14:06:15;2.92;;;1.65;;
22754;SDS011;11544;42.020;23.094;2023-04-16T14:08:44;2.33;;;1.05;;
22754;SDS011;11544;42.020;23.094;2023-04-16T14:11:14;4.28;;;1.13;;
22754;SDS011;11544;42.020;23.094;2023-04-16T14:13:41;2.20;;;0.90;;
22754;SDS011;11544;42.020;23.094;2023-04-16T14:16:08;2.75;;;1.13;;
22754;SDS011;11544;42.020;23.094;2023-04-16T14:18:55;5.68;;;1.25;;
22754;SDS011;11544;42.020;23.094;2023-04-16T14:21:23;4.13;;;1.08;;
22754;SDS011;11544;42.020;23.094;2023-04-16T14:23:49;3.33;;;1.40;;
22754;SDS011;11544;42.020;23.094;2023-04-16T14:26:16;1.75;;;1.10;;
22754;SDS011;11544;42.020;23.094;2023-04-16T14:29:03;3.13;;;1.08;;
22754;SDS011;11544;42.020;23.094;2023-04-16T14:31:30;4.28;;;1.00;;
22754;SDS011;11544;42.020;23.094;2023-04-16T14:33:57;2.08;;;0.60;;
22754;SDS011;11544;42.020;23.094;2023-04-16T14:36:25;1.85;;;0.80;;
22754;SDS011;11544;42.020;23.094;2023-04-16T14:38:52;4.35;;;1.10;;
22754;SDS011;11544;42.020;23.094;2023-04-16T14:41:19;5.53;;;1.33;;
22754;SDS011;11544;42.020;23.094;2023-04-16T14:43:46;2.50;;;0.88;;
22754;SDS011;11544;42.020;23.094;2023-04-16T14:46:14;2.95;;;1.08;;
22754;SDS011;11544;42.020;23.094;2023-04-16T14:48:43;1.50;;;0.90;;
22754;SDS011;11544;42.020;23.094;2023-04-16T14:51:11;2.80;;;0.88;;
22754;SDS011;11544;42.020;23.094;2023-04-16T14:53:38;3.58;;;1.42;;
22754;SDS011;11544;42.020;23.094;2023-04-16T14:56:04;2.70;;;1.25;;
22754;SDS011;11544;42.020;23.094;2023-04-16T14:58:31;1.83;;;1.13;;
22754;SDS011;11544;42.020;23.094;2023-04-16T15:00:58;3.00;;;1.10;;
22754;SDS011;11544;42.020;23.094;2023-04-16T15:03:29;2.65;;;1.25;;
22754;SDS011;11544;42.020;23.094;2023-04-16T15:05:56;4.35;;;1.33;;
22754;SDS011;11544;42.020;23.094;2023-04-16T15:08:25;2.00;;;1.13;;